Oud-Beijerland, Netherlands
Current Conditions -  °F | °C
As of 3:25 AM on Thursday 18 Dec 2014 (Local Time) from EHRD Reporting Station
Drizzle Drizzle  
Wind Chill: 50°   Ceiling: 500
Heat Index: 50°   Visibility: 1.7mi
Dew Point: 50°   Wind: 12mph
Humidity: 100%   Direction: 220°SW
Pressure: 29.77"   Gusts: NA
Location:  51.82°N, 4.41°E
Report Text: EHRD 180225Z AUTO 22010KT 190V250 2800 DZ FEW004 BKN005 OVC00610/10 Q1008 BECMG BKN004 TEMPO 1400
Loading
Personal Weather Stations






























Interactive Weather Map New forecast layout! Learn more

10-Day Weather Forecast

Advertisements
Track Severe Weather on mobile